Hordern Vale, Australia
Current Conditions -  °F | °C
As of 9:30 AM on Tuesday 27 Jan 2015 (Local Time) from YMAV Reporting Station
Scattered Clouds Scattered Clouds  
Wind Chill: 64°   Ceiling: Unl
Heat Index: 64°   Visibility: 6mi
Dew Point: 45°   Wind: 15mph
Humidity: 49%   Direction: 160°SSE
Pressure: 30.03"   Gusts: NA
Location:  38.77°S, 143.51°E
Report Text: YMAV 262230Z AUTO 16013KT 9999 // SCT050 18/07 Q1017
Loading
Personal Weather Stations






























Interactive Weather Map New forecast layout! Learn more

10-Day Weather Forecast

Advertisements
Track Severe Weather on mobile